Flight Track Log - Related Links

Times and Time Zones

All times are in EDT time to prevent confusion due to time zone crossing. See the GJS3710 flight status page for this flight to view local times or setup timezone preferences in your user account.

Time Position Orientation Groundspeed Altitude Reporting Facility
EDT Latitude Longitude Course Direction KTS MPH feet Rate Location/Type
Mon 10:41:38 PM 42.0000 -87.9333 North 158 182 1,100  Level Chicago TRACON
Mon 10:42:38 PM 42.0333 -87.9833 312° West 193 222 3,100 1,600 Climbing Chicago TRACON
Mon 10:43:38 PM 42.0833 -88.0167 334° Northwest 223 257 4,300 951 Climbing Chicago TRACON
Mon 10:45:00 PM 42.4329 -87.7501 10° North  Level FlightAware Approximate
Mon 10:45:22 PM 42.1911 -88.0644 342° North 271 312 5,700  Level Chicago Center
Mon 10:46:00 PM 42.5502 -87.7133 North  Level FlightAware Approximate
Mon 10:46:24 PM 42.2692 -88.0572 North 284 327 8,100  Level Chicago Center
Mon 10:47:25 PM 42.3533 -88.0497 North 284 327 10,600 2,016 Climbing Chicago Center
Mon 10:48:26 PM 42.4414 -88.0489 360° North 312 359 12,200 1,415 Climbing Chicago Center
Mon 10:49:28 PM 42.5339 -87.9878 26° Northeast 391 450 13,500 1,463 Climbing Chicago Center
Mon 10:50:29 PM 42.6175 -87.8892 41° Northeast 399 459 15,200 1,672 Climbing Chicago Center
Mon 10:51:30 PM 42.7022 -87.7850 42° Northeast 409 471 16,900 1,707 Climbing Chicago Center
Mon 10:52:32 PM 42.7883 -87.6819 41° Northeast 411 473 18,700 1,415 Climbing Chicago Center
Mon 10:53:33 PM 42.8469 -87.5439 60° Northeast 430 495 19,800 1,131 Climbing Chicago Center
Mon 10:54:34 PM 42.8853 -87.3742 73° East 429 494 21,000 1,024 Climbing Chicago Center
Mon 10:55:36 PM 42.9181 -87.2169 74° East 431 496 21,900 634 Climbing Chicago Center
Mon 10:56:37 PM 42.9542 -87.0519 73° East 452 520 22,300 683 Climbing Chicago Center
Mon 10:57:39 PM 42.9917 -86.8836 73° East 463 533 23,300 976 Climbing Chicago Center
Mon 10:58:40 PM 43.0186 -86.7111 78° East 466 536 24,300 984 Climbing Chicago Center
Mon 10:59:41 PM 43.0178 -86.5344 90° East 464 534 25,300 1,024 Climbing Chicago Center
Mon 11:00:43 PM 43.0153 -86.3206 91° East 470 541 26,400 878 Climbing Chicago Center
Mon 11:01:44 PM 43.0144 -86.1408 90° East 475 547 27,100 689 Climbing Chicago Center
Mon 11:02:45 PM 43.0183 -85.9469 88° East 484 557 27,800 683 Climbing Chicago Center
Mon 11:03:47 PM 43.0322 -85.7803 83° East 506 582 28,500 634 Climbing Chicago Center
Mon 11:04:48 PM 43.0489 -85.5944 83° East 498 573 29,100 738 Climbing Chicago Center
Mon 11:05:49 PM 43.0675 -85.3678 84° East 501 577 30,000 829 Climbing Chicago Center
Mon 11:06:51 PM 43.0842 -85.1783 83° East 502 578 30,800 927 Climbing Chicago Center
Mon 11:07:52 PM 43.0989 -84.9894 84° East 501 577 31,900 934 Climbing Chicago Center
Mon 11:08:53 PM 43.1142 -84.8017 84° East 499 574 32,700 541 Climbing Chicago Center
Mon 11:09:54 PM 43.1292 -84.6122 84° East 500 575 33,000 146 Climbing Chicago Center
Mon 11:10:56 PM 43.1436 -84.4178 84° East 512 589 33,000  Level Chicago Center
Mon 11:11:57 PM 43.1578 -84.2208 84° East 519 597 33,000 197 Level Chicago Center
Mon 11:12:58 PM 43.1731 -84.0256 84° East 517 595 33,400 619 Climbing Chicago Center
Mon 11:13:34 PM 43.1667 -83.8833 93° East 510 587 34,000 847 Climbing Toronto Center
Mon 11:14:23 PM 43.1906 -83.7297 78° East 516 594 34,600 550 Climbing Cleveland Center
Mon 11:15:23 PM 43.2017 -83.5425 85° East 510 587 35,000 200 Climbing Cleveland Center
Mon 11:16:23 PM 43.2169 -83.3494 84° East 510 587 35,000  Level Cleveland Center
Mon 11:17:23 PM 43.2275 -83.1561 86° East 505 581 35,000  Level Cleveland Center
Mon 11:18:23 PM 43.2422 -82.9600 84° East 505 581 35,000  Level Cleveland Center
Mon 11:19:23 PM 43.2522 -82.7667 86° East 505 581 35,000  Level Cleveland Center
Mon 11:20:23 PM 43.2767 -82.5736 80° East 511 588 35,000  Level Cleveland Center
Mon 11:21:23 PM 43.3047 -82.3833 78° East 516 594 35,000  Level Cleveland Center
Mon 11:22:23 PM 43.3283 -82.1900 80° East 516 594 35,000  Level Cleveland Center
Mon 11:23:34 PM 43.3000 -81.9500 99° East 510 587 35,000  Level Toronto Center
Mon 11:24:34 PM 43.3167 -81.7667 83° East 510 587 35,000  Level Toronto Center
Mon 11:25:34 PM 43.3000 -81.5500 96° East 510 587 35,000  Level Toronto Center
Mon 11:26:34 PM 43.2833 -81.3667 97° East 510 587 35,000  Level Toronto Center
Mon 11:27:34 PM 43.2833 -81.1667 90° East 510 587 35,000  Level Toronto Center
Mon 11:28:34 PM 43.2667 -80.9833 97° East 510 587 35,000  Level Toronto Center
Mon 11:29:34 PM 43.2833 -80.8000 83° East 510 587 35,000  Level Toronto Center
Mon 11:30:34 PM 43.2667 -80.6000 96° East 500 575 35,000  Level Toronto Center
Mon 11:31:34 PM 43.2500 -80.3833 96° East 500 575 35,000  Level Toronto Center
Mon 11:32:34 PM 43.2500 -80.2000 90° East 500 575 35,000  Level Toronto Center
Mon 11:33:34 PM 43.2333 -80.0167 97° East 500 575 35,000  Level Toronto Center
Mon 11:34:34 PM 43.2167 -79.8333 97° East 500 575 35,000  Level Toronto Center
Mon 11:35:34 PM 43.2167 -79.6500 90° East 500 575 35,000  Level Toronto Center
Mon 11:36:34 PM 43.2000 -79.4500 96° East 500 575 35,000  Level Toronto Center
Mon 11:37:34 PM 43.2000 -79.2667 90° East 500 575 35,000  Level Toronto Center
Mon 11:38:34 PM 43.1833 -79.0833 97° East 500 575 35,000  Level Toronto Center
Mon 11:39:34 PM 43.1667 -78.9000 97° East 500 575 35,000  Level Toronto Center
Mon 11:40:23 PM 43.1689 -78.7558 89° East 498 573 35,000  Level Cleveland Center
Mon 11:41:23 PM 43.1575 -78.5656 95° East 498 573 35,000  Level Cleveland Center
Mon 11:42:23 PM 43.1456 -78.3753 95° East 498 573 35,000  Level Cleveland Center
Mon 11:43:23 PM 43.1314 -78.1850 96° East 498 573 35,000  Level Cleveland Center
Mon 11:44:23 PM 43.1192 -77.9978 95° East 498 573 35,000 -50 Level Cleveland Center
Mon 11:45:23 PM 43.1042 -77.8050 96° East 498 573 34,900 -600 Descending Cleveland Center
Mon 11:46:23 PM 43.0933 -77.6150 94° East 498 573 33,800 -950 Descending Cleveland Center
Mon 11:47:23 PM 43.0778 -77.4225 96° East 498 573 33,000 -440 Descending Cleveland Center
Mon 11:49:34 PM 43.0333 -76.9667 97° East 510 587 32,400 -503 Descending Toronto Center
Mon 11:50:34 PM 43.0333 -76.7833 90° East 510 587 31,400 -968 Descending Toronto Center
Mon 11:51:07 PM 43.0222 -76.7261 105° East 518 596 30,900 -968 Descending Boston Center
Mon 11:52:07 PM 43.0081 -76.5406 96° East 506 582 29,900 -950 Descending Boston Center
Mon 11:53:07 PM 42.9936 -76.3636 96° East 486 559 29,000 -450 Descending Boston Center
Mon 11:54:07 PM 42.9786 -76.1839 96° East 486 559 29,000  Level Boston Center
Mon 11:55:07 PM 42.9617 -76.0039 97° East 486 559 29,000 -50 Level Boston Center
Mon 11:56:07 PM 42.9442 -75.8242 98° East 486 559 28,900  Descending Boston Center
Mon 11:57:07 PM 42.9286 -75.6417 97° East 486 559 29,000  Climbing Boston Center
Mon 11:58:07 PM 42.9125 -75.4622 97° East 486 559 28,900 -1,700 Descending Boston Center
Mon 11:59:07 PM 42.8964 -75.2858 97° East 486 559 25,600 -3,091 Descending Boston Center
Tue 12:00:19 AM 42.8797 -75.1122 97° East 486 559 22,100 -3,455 Descending Boston Center
Tue 12:01:19 AM 42.8611 -74.9131 97° East 486 559 18,000 -3,800 Descending Boston Center
Tue 12:02:19 AM 42.8442 -74.7339 97° East 486 559 14,500 -2,900 Descending Boston Center
Tue 12:03:19 AM 42.8322 -74.6003 97° East 486 559 12,200 -2,040 Descending Boston Center
Tue 12:03:59 AM 42.8175 -74.4950 101° East 375 432 11,100 -623 Descending Boston Center
Tue 12:05:05 AM 42.8036 -74.3361 97° East 390 449 11,100 -142 Level Boston Center
Tue 12:06:06 AM 42.7578 -74.2019 115° Southeast 345 397 10,800 -787 Descending Boston Center
Tue 12:07:07 AM 42.7092 -74.1072 125° Southeast 296 341 9,500 -1,438 Descending Boston Center
Tue 12:08:07 AM 42.6792 -74.0075 112° Southeast 274 315 7,900 -2,083 Descending Boston Center
Tue 12:09:08 AM 42.6597 -73.9139 106° East 250 288 5,300 -2,132 Descending Boston Center
Tue 12:10:08 AM 42.6544 -73.8261 95° East 213 245 3,600 -1,934 Descending Boston Center
Tue 12:11:09 AM 42.6881 -73.8044 25° Northeast 141 162 1,400 -1,525 Descending Boston Center
Tue 12:12:10 AM 42.7297 -73.8081 356° North 145 167 500 -885 Descending Boston Center

Login

Don't have an account? Register now (free) for customized features, flight alerts, and more!